sensor_id;sensor_type;location;lat;lon;timestamp;pressure;altitude;pressure_sealevel;temperature;humidity
31121;BME280;17770;45.966;13.632;2023-11-21T00:00:29;99961.59;;;15.84;60.13
31121;BME280;17770;45.966;13.632;2023-11-21T00:02:55;99951.22;;;15.84;59.99
31121;BME280;17770;45.966;13.632;2023-11-21T00:05:21;99949.53;;;15.83;60.28
31121;BME280;17770;45.966;13.632;2023-11-21T00:07:49;99958.16;;;15.84;59.96
31121;BME280;17770;45.966;13.632;2023-11-21T00:10:15;99951.22;;;15.84;60.19
31121;BME280;17770;45.966;13.632;2023-11-21T00:12:42;99948.59;;;15.84;59.77
31121;BME280;17770;45.966;13.632;2023-11-21T00:15:09;99943.41;;;15.84;59.87
31121;BME280;17770;45.966;13.632;2023-11-21T00:17:37;99941.75;;;15.83;59.80
31121;BME280;17770;45.966;13.632;2023-11-21T00:20:03;99932.16;;;15.84;60.20
31121;BME280;17770;45.966;13.632;2023-11-21T00:22:33;99928.75;;;15.83;60.14
31121;BME280;17770;45.966;13.632;2023-11-21T00:24:59;99927.91;;;15.83;59.95
31121;BME280;17770;45.966;13.632;2023-11-21T00:27:25;99922.78;;;15.81;60.22
31121;BME280;17770;45.966;13.632;2023-11-21T00:29:51;99912.28;;;15.83;59.78
31121;BME280;17770;45.966;13.632;2023-11-21T00:32:17;99902.66;;;15.85;60.35
31121;BME280;17770;45.966;13.632;2023-11-21T00:34:43;99907.94;;;15.83;60.13
31121;BME280;17770;45.966;13.632;2023-11-21T00:37:09;99897.44;;;15.85;59.56
31121;BME280;17770;45.966;13.632;2023-11-21T00:39:35;99900.13;;;15.83;59.73
31121;BME280;17770;45.966;13.632;2023-11-21T00:42:01;99894.09;;;15.83;60.37
31121;BME280;17770;45.966;13.632;2023-11-21T00:44:27;99891.50;;;15.83;59.90
31121;BME280;17770;45.966;13.632;2023-11-21T00:46:53;99879.25;;;15.85;59.61
31121;BME280;17770;45.966;13.632;2023-11-21T00:49:20;99877.56;;;15.84;59.89
31121;BME280;17770;45.966;13.632;2023-11-21T00:51:46;99880.16;;;15.84;59.40
31121;BME280;17770;45.966;13.632;2023-11-21T00:54:12;99875.03;;;15.82;59.85
31121;BME280;17770;45.966;13.632;2023-11-21T00:56:38;99873.28;;;15.83;59.86
31121;BME280;17770;45.966;13.632;2023-11-21T00:59:06;99880.06;;;15.85;60.14
31121;BME280;17770;45.966;13.632;2023-11-21T01:01:32;99874.03;;;15.85;59.76
31121;BME280;17770;45.966;13.632;2023-11-21T01:03:58;99880.06;;;15.85;59.64
31121;BME280;17770;45.966;13.632;2023-11-21T01:06:24;99874.03;;;15.85;59.97
31121;BME280;17770;45.966;13.632;2023-11-21T01:08:50;99874.13;;;15.83;59.89
31121;BME280;17770;45.966;13.632;2023-11-21T01:11:16;99863.66;;;15.85;60.11
31121;BME280;17770;45.966;13.632;2023-11-21T01:13:44;99868.84;;;15.85;59.90
31121;BME280;17770;45.966;13.632;2023-11-21T01:16:10;99879.25;;;15.85;59.68
31121;BME280;17770;45.966;13.632;2023-11-21T01:18:37;99870.59;;;15.84;60.08
31121;BME280;17770;45.966;13.632;2023-11-21T01:21:03;99868.84;;;15.85;59.74
31121;BME280;17770;45.966;13.632;2023-11-21T01:23:30;99861.13;;;15.83;59.49
31121;BME280;17770;45.966;13.632;2023-11-21T01:25:57;99861.94;;;15.84;59.74
31121;BME280;17770;45.966;13.632;2023-11-21T01:28:23;99863.75;;;15.83;60.41
31121;BME280;17770;45.966;13.632;2023-11-21T01:30:49;99860.19;;;15.84;60.00
31121;BME280;17770;45.966;13.632;2023-11-21T01:33:15;99851.56;;;15.84;60.30
31121;BME280;17770;45.966;13.632;2023-11-21T01:35:42;99844.50;;;15.86;59.77
31121;BME280;17770;45.966;13.632;2023-11-21T01:38:08;99847.19;;;15.84;60.08
31121;BME280;17770;45.966;13.632;2023-11-21T01:40:35;99846.34;;;15.84;60.34
31121;BME280;17770;45.966;13.632;2023-11-21T01:43:01;99841.16;;;15.84;60.16
31121;BME280;17770;45.966;13.632;2023-11-21T01:45:30;99830.75;;;15.84;60.04
31121;BME280;17770;45.966;13.632;2023-11-21T01:48:00;99828.16;;;15.84;60.30
31121;BME280;17770;45.966;13.632;2023-11-21T01:50:26;99816.94;;;15.83;60.23
31121;BME280;17770;45.966;13.632;2023-11-21T01:53:05;99812.47;;;15.85;60.17
31121;BME280;17770;45.966;13.632;2023-11-21T01:55:32;99806.53;;;15.83;59.61
31121;BME280;17770;45.966;13.632;2023-11-21T01:57:59;99812.56;;;15.84;59.47
31121;BME280;17770;45.966;13.632;2023-11-21T02:00:35;99808.09;;;15.86;59.63
31121;BME280;17770;45.966;13.632;2023-11-21T02:03:01;99797.78;;;15.84;60.16
31121;BME280;17770;45.966;13.632;2023-11-21T02:05:28;99803.84;;;15.85;59.84
31121;BME280;17770;45.966;13.632;2023-11-21T02:07:55;99801.34;;;15.83;60.30
31121;BME280;17770;45.966;13.632;2023-11-21T02:10:22;99802.16;;;15.84;59.75
31121;BME280;17770;45.966;13.632;2023-11-21T02:12:51;99807.25;;;15.85;59.67
31121;BME280;17770;45.966;13.632;2023-11-21T02:15:17;99803.94;;;15.83;59.49
31121;BME280;17770;45.966;13.632;2023-11-21T02:17:50;99792.50;;;15.86;59.86
31121;BME280;17770;45.966;13.632;2023-11-21T02:20:17;99796.75;;;15.87;59.83
31121;BME280;17770;45.966;13.632;2023-11-21T02:22:44;99782.19;;;15.84;59.96
31121;BME280;17770;45.966;13.632;2023-11-21T02:25:11;99781.25;;;15.85;59.81
31121;BME280;17770;45.966;13.632;2023-11-21T02:27:37;99776.06;;;15.85;59.64
31121;BME280;17770;45.966;13.632;2023-11-21T02:30:05;99777.94;;;15.83;59.54
31121;BME280;17770;45.966;13.632;2023-11-21T02:32:33;99782.09;;;15.86;59.66
31121;BME280;17770;45.966;13.632;2023-11-21T02:35:00;99773.44;;;15.85;60.15
31121;BME280;17770;45.966;13.632;2023-11-21T02:37:33;99787.41;;;15.84;59.45
31121;BME280;17770;45.966;13.632;2023-11-21T02:39:59;99785.72;;;15.83;60.10
31121;BME280;17770;45.966;13.632;2023-11-21T02:42:25;99789.16;;;15.84;60.12
31121;BME280;17770;45.966;13.632;2023-11-21T02:44:51;99783.94;;;15.84;59.59
31121;BME280;17770;45.966;13.632;2023-11-21T02:47:16;99782.19;;;15.84;59.65
31121;BME280;17770;45.966;13.632;2023-11-21T02:49:42;99787.50;;;15.83;59.74
31121;BME280;17770;45.966;13.632;2023-11-21T02:52:09;99780.53;;;15.83;59.82
31121;BME280;17770;45.966;13.632;2023-11-21T02:54:35;99783.84;;;15.85;59.69
31121;BME280;17770;45.966;13.632;2023-11-21T02:57:02;99789.91;;;15.86;59.56
31121;BME280;17770;45.966;13.632;2023-11-21T02:59:29;99790.84;;;15.85;60.38
31121;BME280;17770;45.966;13.632;2023-11-21T03:01:55;99789.16;;;15.84;60.23
31121;BME280;17770;45.966;13.632;2023-11-21T03:04:23;99779.50;;;15.86;60.03
31121;BME280;17770;45.966;13.632;2023-11-21T03:06:49;99773.66;;;15.82;59.50
31121;BME280;17770;45.966;13.632;2023-11-21T03:09:15;99770.22;;;15.82;59.70
31121;BME280;17770;45.966;13.632;2023-11-21T03:11:42;99757.94;;;15.84;59.62
31121;BME280;17770;45.966;13.632;2023-11-21T03:14:07;99752.66;;;15.85;60.24
31121;BME280;17770;45.966;13.632;2023-11-21T03:16:33;99751.84;;;15.85;59.97
31121;BME280;17770;45.966;13.632;2023-11-21T03:19:00;99746.63;;;15.85;60.00
31121;BME280;17770;45.966;13.632;2023-11-21T03:21:27;99742.34;;;15.84;59.94
31121;BME280;17770;45.966;13.632;2023-11-21T03:23:53;99746.53;;;15.86;59.58
31121;BME280;17770;45.966;13.632;2023-11-21T03:26:19;99741.53;;;15.83;60.02
31121;BME280;17770;45.966;13.632;2023-11-21T03:28:45;99733.63;;;15.85;59.53
31121;BME280;17770;45.966;13.632;2023-11-21T03:31:11;99728.44;;;15.85;60.37
31121;BME280;17770;45.966;13.632;2023-11-21T03:33:37;99720.72;;;15.83;60.01
31121;BME280;17770;45.966;13.632;2023-11-21T03:36:03;99726.66;;;15.85;59.96
31121;BME280;17770;45.966;13.632;2023-11-21T03:38:29;99725.75;;;15.86;60.17
31121;BME280;17770;45.966;13.632;2023-11-21T03:40:56;99733.63;;;15.85;59.55
31121;BME280;17770;45.966;13.632;2023-11-21T03:43:22;99730.94;;;15.86;59.78
31121;BME280;17770;45.966;13.632;2023-11-21T03:45:50;99725.75;;;15.86;59.82
31121;BME280;17770;45.966;13.632;2023-11-21T03:48:16;99726.66;;;15.85;59.90
31121;BME280;17770;45.966;13.632;2023-11-21T03:50:42;99724.16;;;15.84;59.67
31121;BME280;17770;45.966;13.632;2023-11-21T03:53:08;99732.03;;;15.82;59.89
31121;BME280;17770;45.966;13.632;2023-11-21T03:55:34;99728.44;;;15.85;60.15
31121;BME280;17770;45.966;13.632;2023-11-21T03:58:00;99723.94;;;15.87;60.10
31121;BME280;17770;45.966;13.632;2023-11-21T04:00:27;99727.41;;;15.87;59.53
31121;BME280;17770;45.966;13.632;2023-11-21T04:02:53;99734.44;;;15.85;60.21
31121;BME280;17770;45.966;13.632;2023-11-21T04:05:20;99730.94;;;15.86;59.63
31121;BME280;17770;45.966;13.632;2023-11-21T04:07:49;99727.41;;;15.87;60.35
31121;BME280;17770;45.966;13.632;2023-11-21T04:10:15;99735.19;;;15.87;60.11
31121;BME280;17770;45.966;13.632;2023-11-21T04:12:41;99733.53;;;15.86;60.05
31121;BME280;17770;45.966;13.632;2023-11-21T04:15:08;99745.59;;;15.87;60.28
31121;BME280;17770;45.966;13.632;2023-11-21T04:17:41;99739.56;;;15.87;59.77
31121;BME280;17770;45.966;13.632;2023-11-21T04:20:08;99732.59;;;15.87;59.77
31121;BME280;17770;45.966;13.632;2023-11-21T04:22:43;99730.84;;;15.88;59.96
31121;BME280;17770;45.966;13.632;2023-11-21T04:25:10;99730.94;;;15.86;59.62
31121;BME280;17770;45.966;13.632;2023-11-21T04:27:38;99734.44;;;15.85;59.69
31121;BME280;17770;45.966;13.632;2023-11-21T04:30:06;99732.69;;;15.86;59.86
31121;BME280;17770;45.966;13.632;2023-11-21T04:32:33;99730.00;;;15.87;60.22
31121;BME280;17770;45.966;13.632;2023-11-21T04:34:59;99731.94;;;15.84;59.74
31121;BME280;17770;45.966;13.632;2023-11-21T04:37:25;99734.44;;;15.85;60.08
31121;BME280;17770;45.966;13.632;2023-11-21T04:39:51;99735.28;;;15.86;60.17
31121;BME280;17770;45.966;13.632;2023-11-21T04:42:17;99731.75;;;15.87;59.96
31121;BME280;17770;45.966;13.632;2023-11-21T04:44:43;99725.84;;;15.85;60.35
31121;BME280;17770;45.966;13.632;2023-11-21T04:47:10;99736.13;;;15.86;60.33
31121;BME280;17770;45.966;13.632;2023-11-21T04:49:36;99730.09;;;15.86;59.97
31121;BME280;17770;45.966;13.632;2023-11-21T04:52:02;99730.09;;;15.86;59.97
31121;BME280;17770;45.966;13.632;2023-11-21T04:54:30;99738.75;;;15.86;60.17
31121;BME280;17770;45.966;13.632;2023-11-21T04:56:56;99730.94;;;15.86;59.85
31121;BME280;17770;45.966;13.632;2023-11-21T04:59:22;99725.75;;;15.86;59.78
31121;BME280;17770;45.966;13.632;2023-11-21T05:01:50;99730.09;;;15.86;59.79
31121;BME280;17770;45.966;13.632;2023-11-21T05:04:16;99725.66;;;15.88;60.07
31121;BME280;17770;45.966;13.632;2023-11-21T05:06:42;99726.66;;;15.85;59.79
31121;BME280;17770;45.966;13.632;2023-11-21T05:09:08;99724.25;;;15.82;59.86
31121;BME280;17770;45.966;13.632;2023-11-21T05:11:37;99723.13;;;15.86;59.67
31121;BME280;17770;45.966;13.632;2023-11-21T05:14:03;99724.06;;;15.85;59.57
31121;BME280;17770;45.966;13.632;2023-11-21T05:16:30;99729.25;;;15.85;59.76
31121;BME280;17770;45.966;13.632;2023-11-21T05:18:57;99734.34;;;15.87;59.75
31121;BME280;17770;45.966;13.632;2023-11-21T05:21:26;99735.28;;;15.86;59.89
31121;BME280;17770;45.966;13.632;2023-11-21T05:23:52;99726.56;;;15.87;59.81
31121;BME280;17770;45.966;13.632;2023-11-21T05:26:18;99736.13;;;15.86;59.90
31121;BME280;17770;45.966;13.632;2023-11-21T05:28:44;99730.00;;;15.87;59.73
31121;BME280;17770;45.966;13.632;2023-11-21T05:31:10;99740.41;;;15.87;60.34
31121;BME280;17770;45.966;13.632;2023-11-21T05:33:38;99736.13;;;15.86;59.78
31121;BME280;17770;45.966;13.632;2023-11-21T05:36:04;99738.66;;;15.88;59.80
31121;BME280;17770;45.966;13.632;2023-11-21T05:38:35;99738.75;;;15.86;59.84
31121;BME280;17770;45.966;13.632;2023-11-21T05:41:01;99741.34;;;15.86;59.62
31121;BME280;17770;45.966;13.632;2023-11-21T05:43:28;99746.44;;;15.88;59.96
31121;BME280;17770;45.966;13.632;2023-11-21T05:45:56;99744.69;;;15.88;60.19
31121;BME280;17770;45.966;13.632;2023-11-21T05:48:22;99745.59;;;15.87;60.02
31121;BME280;17770;45.966;13.632;2023-11-21T05:50:49;99747.44;;;15.85;59.84
31121;BME280;17770;45.966;13.632;2023-11-21T05:53:16;99756.94;;;15.86;60.24
31121;BME280;17770;45.966;13.632;2023-11-21T05:55:42;99755.25;;;15.85;59.99
31121;BME280;17770;45.966;13.632;2023-11-21T05:58:08;99759.44;;;15.88;59.98
31121;BME280;17770;45.966;13.632;2023-11-21T06:00:34;99762.13;;;15.86;60.67
31121;BME280;17770;45.966;13.632;2023-11-21T06:03:00;99757.75;;;15.87;59.59
31121;BME280;17770;45.966;13.632;2023-11-21T06:05:27;99755.25;;;15.85;60.22
31121;BME280;17770;45.966;13.632;2023-11-21T06:07:54;99753.50;;;15.86;59.75
31121;BME280;17770;45.966;13.632;2023-11-21T06:10:22;99753.50;;;15.86;59.71
31121;BME280;17770;45.966;13.632;2023-11-21T06:12:49;99757.69;;;15.88;59.82
31121;BME280;17770;45.966;13.632;2023-11-21T06:15:15;99756.75;;;15.89;60.21
31121;BME280;17770;45.966;13.632;2023-11-21T06:17:44;99752.75;;;15.84;60.22
31121;BME280;17770;45.966;13.632;2023-11-21T06:20:15;99756.00;;;15.87;59.92
31121;BME280;17770;45.966;13.632;2023-11-21T06:22:42;99759.44;;;15.88;59.65
31121;BME280;17770;45.966;13.632;2023-11-21T06:25:08;99758.78;;;15.84;59.66
31121;BME280;17770;45.966;13.632;2023-11-21T06:27:40;99762.06;;;15.88;59.81
31121;BME280;17770;45.966;13.632;2023-11-21T06:30:06;99756.75;;;15.89;60.25
31121;BME280;17770;45.966;13.632;2023-11-21T06:32:35;99758.69;;;15.86;60.00
31121;BME280;17770;45.966;13.632;2023-11-21T06:35:04;99756.84;;;15.88;59.63
31121;BME280;17770;45.966;13.632;2023-11-21T06:37:31;99756.84;;;15.88;59.66
31121;BME280;17770;45.966;13.632;2023-11-21T06:39:58;99755.16;;;15.87;60.00
31121;BME280;17770;45.966;13.632;2023-11-21T06:42:25;99756.94;;;15.86;60.11
31121;BME280;17770;45.966;13.632;2023-11-21T06:44:52;99759.53;;;15.86;59.72
31121;BME280;17770;45.966;13.632;2023-11-21T06:47:19;99758.59;;;15.87;60.16
31121;BME280;17770;45.966;13.632;2023-11-21T06:49:53;99760.44;;;15.85;59.73
31121;BME280;17770;45.966;13.632;2023-11-21T06:52:19;99751.66;;;15.88;59.66
31121;BME280;17770;45.966;13.632;2023-11-21T06:54:46;99760.34;;;15.87;59.90
31121;BME280;17770;45.966;13.632;2023-11-21T06:57:13;99757.69;;;15.88;59.92
31121;BME280;17770;45.966;13.632;2023-11-21T06:59:39;99757.69;;;15.88;60.30
31121;BME280;17770;45.966;13.632;2023-11-21T07:02:06;99757.69;;;15.88;60.26
31121;BME280;17770;45.966;13.632;2023-11-21T07:04:33;99762.97;;;15.87;59.59
31121;BME280;17770;45.966;13.632;2023-11-21T07:06:59;99768.91;;;15.89;59.76
31121;BME280;17770;45.966;13.632;2023-11-21T07:09:26;99767.25;;;15.88;60.17
31121;BME280;17770;45.966;13.632;2023-11-21T07:11:53;99767.34;;;15.86;60.12
31121;BME280;17770;45.966;13.632;2023-11-21T07:14:21;99775.06;;;15.88;60.23
31121;BME280;17770;45.966;13.632;2023-11-21T07:16:47;99777.75;;;15.86;59.90
31121;BME280;17770;45.966;13.632;2023-11-21T07:19:13;99762.88;;;15.88;59.91
31121;BME280;17770;45.966;13.632;2023-11-21T07:21:41;99758.59;;;15.87;60.16
31121;BME280;17770;45.966;13.632;2023-11-21T07:24:07;99758.50;;;15.89;60.26
31121;BME280;17770;45.966;13.632;2023-11-21T07:26:34;99768.25;;;15.85;59.96
31121;BME280;17770;45.966;13.632;2023-11-21T07:29:02;99768.91;;;15.89;60.10
31121;BME280;17770;45.966;13.632;2023-11-21T07:31:28;99771.78;;;15.84;60.32
31121;BME280;17770;45.966;13.632;2023-11-21T07:33:55;99770.75;;;15.87;60.10
31121;BME280;17770;45.966;13.632;2023-11-21T07:36:25;99781.09;;;15.88;60.02
31121;BME280;17770;45.966;13.632;2023-11-21T07:38:51;99771.69;;;15.86;59.87
31121;BME280;17770;45.966;13.632;2023-11-21T07:41:17;99776.72;;;15.89;60.10
31121;BME280;17770;45.966;13.632;2023-11-21T07:43:45;99774.09;;;15.89;59.84
31121;BME280;17770;45.966;13.632;2023-11-21T07:46:12;99776.81;;;15.87;60.23
31121;BME280;17770;45.966;13.632;2023-11-21T07:48:39;99781.09;;;15.88;60.05
31121;BME280;17770;45.966;13.632;2023-11-21T07:51:05;99768.16;;;15.87;60.36
31121;BME280;17770;45.966;13.632;2023-11-21T07:53:35;99768.16;;;15.87;60.26
31121;BME280;17770;45.966;13.632;2023-11-21T07:56:08;99780.34;;;15.86;60.14
31121;BME280;17770;45.966;13.632;2023-11-21T07:58:35;99766.50;;;15.86;59.71
31121;BME280;17770;45.966;13.632;2023-11-21T08:01:02;99765.50;;;15.88;59.95
31121;BME280;17770;45.966;13.632;2023-11-21T08:03:28;99769.00;;;15.87;59.70
31121;BME280;17770;45.966;13.632;2023-11-21T08:05:56;99762.97;;;15.87;60.20
31121;BME280;17770;45.966;13.632;2023-11-21T08:08:22;99759.34;;;15.89;59.70
31121;BME280;17770;45.966;13.632;2023-11-21T08:10:48;99746.53;;;15.86;59.86
31121;BME280;17770;45.966;13.632;2023-11-21T08:13:14;99752.41;;;15.90;59.62
31121;BME280;17770;45.966;13.632;2023-11-21T08:15:41;99749.88;;;15.88;60.18
31121;BME280;17770;45.966;13.632;2023-11-21T08:18:13;99742.81;;;15.90;59.54
31121;BME280;17770;45.966;13.632;2023-11-21T08:20:40;99743.94;;;15.86;59.64
31121;BME280;17770;45.966;13.632;2023-11-21T08:23:06;99740.41;;;15.87;60.10
31121;BME280;17770;45.966;13.632;2023-11-21T08:25:32;99749.78;;;15.90;59.63
31121;BME280;17770;45.966;13.632;2023-11-21T08:27:59;99763.59;;;15.90;59.81
31121;BME280;17770;45.966;13.632;2023-11-21T08:30:25;99752.31;;;15.91;60.06
31121;BME280;17770;45.966;13.632;2023-11-21T08:32:53;99755.81;;;15.90;59.49
31121;BME280;17770;45.966;13.632;2023-11-21T08:35:19;99747.19;;;15.90;59.72
31121;BME280;17770;45.966;13.632;2023-11-21T08:37:45;99756.56;;;15.92;59.56
31121;BME280;17770;45.966;13.632;2023-11-21T08:40:11;99757.50;;;15.91;59.95
31121;BME280;17770;45.966;13.632;2023-11-21T08:42:42;99751.44;;;15.91;60.34
31121;BME280;17770;45.966;13.632;2023-11-21T08:45:08;99753.97;;;15.92;59.70
31121;BME280;17770;45.966;13.632;2023-11-21T08:47:34;99748.84;;;15.91;59.65
31121;BME280;17770;45.966;13.632;2023-11-21T08:50:02;99744.50;;;15.91;59.57
31121;BME280;17770;45.966;13.632;2023-11-21T08:52:28;99748.84;;;15.91;60.09
31121;BME280;17770;45.966;13.632;2023-11-21T08:54:54;99746.16;;;15.92;60.10
31121;BME280;17770;45.966;13.632;2023-11-21T08:57:22;99745.25;;;15.93;60.13
31121;BME280;17770;45.966;13.632;2023-11-21T08:59:47;99751.34;;;15.92;59.70
31121;BME280;17770;45.966;13.632;2023-11-21T09:02:13;99752.00;;;15.96;59.72
31121;BME280;17770;45.966;13.632;2023-11-21T09:04:39;99752.31;;;15.91;59.93
31121;BME280;17770;45.966;13.632;2023-11-21T09:07:05;99749.59;;;15.93;59.54
31121;BME280;17770;45.966;13.632;2023-11-21T09:09:31;99756.66;;;15.91;60.13
31121;BME280;17770;45.966;13.632;2023-11-21T09:11:57;99745.31;;;15.92;59.89
31121;BME280;17770;45.966;13.632;2023-11-21T09:14:22;99753.97;;;15.92;60.13
31121;BME280;17770;45.966;13.632;2023-11-21T09:16:49;99772.25;;;15.91;59.87
31121;BME280;17770;45.966;13.632;2023-11-21T09:19:16;99774.66;;;15.94;59.96
31121;BME280;17770;45.966;13.632;2023-11-21T09:21:42;99763.34;;;15.95;59.68
31121;BME280;17770;45.966;13.632;2023-11-21T09:24:07;99762.50;;;15.94;60.20
31121;BME280;17770;45.966;13.632;2023-11-21T09:26:34;99765.09;;;15.94;59.90
31121;BME280;17770;45.966;13.632;2023-11-21T09:29:00;99765.84;;;15.96;59.94
31121;BME280;17770;45.966;13.632;2023-11-21T09:31:27;99769.28;;;15.97;59.75
31121;BME280;17770;45.966;13.632;2023-11-21T09:33:53;99768.38;;;15.98;60.03
31121;BME280;17770;45.966;13.632;2023-11-21T09:36:19;99757.22;;;15.96;59.51
31121;BME280;17770;45.966;13.632;2023-11-21T09:38:49;99750.25;;;15.96;60.06
31121;BME280;17770;45.966;13.632;2023-11-21T09:41:18;99759.81;;;15.96;59.81
31121;BME280;17770;45.966;13.632;2023-11-21T09:43:46;99751.81;;;15.99;59.77
31121;BME280;17770;45.966;13.632;2023-11-21T09:46:13;99757.97;;;15.98;59.59
31121;BME280;17770;45.966;13.632;2023-11-21T09:48:47;99750.06;;;15.99;59.38
31121;BME280;17770;45.966;13.632;2023-11-21T09:51:16;99744.84;;;15.99;59.65
31121;BME280;17770;45.966;13.632;2023-11-21T09:53:45;99743.16;;;15.98;59.71
31121;BME280;17770;45.966;13.632;2023-11-21T09:56:13;99745.97;;;15.95;60.24
31121;BME280;17770;45.966;13.632;2023-11-21T09:58:39;99755.47;;;15.96;60.08
31121;BME280;17770;45.966;13.632;2023-11-21T10:01:05;99755.16;;;16.01;59.92
31121;BME280;17770;45.966;13.632;2023-11-21T10:03:35;99750.91;;;16.00;60.10
31121;BME280;17770;45.966;13.632;2023-11-21T10:06:02;99752.66;;;15.99;60.15
31121;BME280;17770;45.966;13.632;2023-11-21T10:08:28;99748.38;;;15.98;59.63
31121;BME280;17770;45.966;13.632;2023-11-21T10:10:54;99750.91;;;16.00;59.80
31121;BME280;17770;45.966;13.632;2023-11-21T10:13:21;99748.31;;;16.00;59.55
31121;BME280;17770;45.966;13.632;2023-11-21T10:15:49;99755.06;;;16.02;60.00
31121;BME280;17770;45.966;13.632;2023-11-21T10:18:15;99747.47;;;15.99;59.82
31121;BME280;17770;45.966;13.632;2023-11-21T10:20:41;99761.22;;;16.01;60.16
31121;BME280;17770;45.966;13.632;2023-11-21T10:23:07;99771.63;;;16.01;59.56
31121;BME280;17770;45.966;13.632;2023-11-21T10:25:37;99755.16;;;16.01;59.92
31121;BME280;17770;45.966;13.632;2023-11-21T10:28:03;99754.13;;;16.03;60.25
31121;BME280;17770;45.966;13.632;2023-11-21T10:30:33;99756.72;;;16.03;60.04
31121;BME280;17770;45.966;13.632;2023-11-21T10:33:02;99752.47;;;16.02;59.62
31121;BME280;17770;45.966;13.632;2023-11-21T10:35:38;99742.91;;;16.03;59.66
31121;BME280;17770;45.966;13.632;2023-11-21T10:38:04;99756.66;;;16.05;59.81
31121;BME280;17770;45.966;13.632;2023-11-21T10:40:31;99747.91;;;16.06;59.55
31121;BME280;17770;45.966;13.632;2023-11-21T10:43:05;99743.56;;;16.06;59.48
31121;BME280;17770;45.966;13.632;2023-11-21T10:45:31;99748.00;;;16.04;59.60
31121;BME280;17770;45.966;13.632;2023-11-21T10:47:57;99754.88;;;16.05;60.00
31121;BME280;17770;45.966;13.632;2023-11-21T10:50:23;99769.56;;;16.06;60.03
31121;BME280;17770;45.966;13.632;2023-11-21T10:52:49;99750.63;;;16.04;60.09
31121;BME280;17770;45.966;13.632;2023-11-21T10:55:18;99756.00;;;16.01;60.14
31121;BME280;17770;45.966;13.632;2023-11-21T10:57:48;99760.06;;;16.05;59.55
31121;BME280;17770;45.966;13.632;2023-11-21T11:00:15;99749.56;;;16.07;59.60
31121;BME280;17770;45.966;13.632;2023-11-21T11:02:41;99766.03;;;16.07;60.13
31121;BME280;17770;45.966;13.632;2023-11-21T11:05:08;99764.38;;;16.06;59.79
31121;BME280;17770;45.966;13.632;2023-11-21T11:07:37;99755.72;;;16.06;60.09
31121;BME280;17770;45.966;13.632;2023-11-21T11:10:04;99741.88;;;16.05;60.15
31121;BME280;17770;45.966;13.632;2023-11-21T11:12:30;99738.34;;;16.06;60.07
31121;BME280;17770;45.966;13.632;2023-11-21T11:14:56;99735.84;;;16.05;59.79
31121;BME280;17770;45.966;13.632;2023-11-21T11:17:23;99729.59;;;16.07;59.52
31121;BME280;17770;45.966;13.632;2023-11-21T11:19:49;99726.16;;;16.07;59.50
31121;BME280;17770;45.966;13.632;2023-11-21T11:27:24;99741.66;;;16.08;59.64
31121;BME280;17770;45.966;13.632;2023-11-21T11:30:07;99741.56;;;16.10;60.11
31121;BME280;17770;45.966;13.632;2023-11-21T11:32:40;99740.75;;;16.09;59.75
31121;BME280;17770;45.966;13.632;2023-11-21T11:35:15;99740.00;;;16.07;59.52
31121;BME280;17770;45.966;13.632;2023-11-21T11:37:43;99725.06;;;16.11;59.62
31121;BME280;17770;45.966;13.632;2023-11-21T11:40:12;99724.22;;;16.10;59.90
31121;BME280;17770;45.966;13.632;2023-11-21T11:42:38;99725.91;;;16.11;59.77
31121;BME280;17770;45.966;13.632;2023-11-21T11:45:17;99719.84;;;16.11;59.72
31121;BME280;17770;45.966;13.632;2023-11-21T11:47:44;99715.50;;;16.11;60.06
31121;BME280;17770;45.966;13.632;2023-11-21T11:50:13;99715.41;;;16.13;60.04
31121;BME280;17770;45.966;13.632;2023-11-21T11:55:09;99697.47;;;16.08;59.71
31121;BME280;17770;45.966;13.632;2023-11-21T11:57:39;99694.69;;;16.11;59.54
31121;BME280;17770;45.966;13.632;2023-11-21T12:02:48;99698.00;;;16.13;60.09
31121;BME280;17770;45.966;13.632;2023-11-21T12:05:15;99692.81;;;16.13;59.70
31121;BME280;17770;45.966;13.632;2023-11-21T12:07:45;99687.59;;;16.13;59.95
31121;BME280;17770;45.966;13.632;2023-11-21T12:10:15;99710.91;;;16.15;59.83
31121;BME280;17770;45.966;13.632;2023-11-21T12:12:44;99679.78;;;16.13;60.14
31121;BME280;17770;45.966;13.632;2023-11-21T12:15:10;99679.69;;;16.15;60.14
31121;BME280;17770;45.966;13.632;2023-11-21T12:17:37;99679.63;;;16.16;60.25
31121;BME280;17770;45.966;13.632;2023-11-21T12:20:04;99684.91;;;16.15;59.63
31121;BME280;17770;45.966;13.632;2023-11-21T12:22:31;99685.53;;;16.18;59.79
31121;BME280;17770;45.966;13.632;2023-11-21T12:24:57;99690.03;;;16.16;59.63
31121;BME280;17770;45.966;13.632;2023-11-21T12:27:23;99684.72;;;16.18;59.67
31121;BME280;17770;45.966;13.632;2023-11-21T12:29:49;99686.38;;;16.19;59.84
31121;BME280;17770;45.966;13.632;2023-11-21T12:32:14;99686.38;;;16.19;59.48
31121;BME280;17770;45.966;13.632;2023-11-21T12:34:43;99675.03;;;16.20;60.01
31121;BME280;17770;45.966;13.632;2023-11-21T12:37:09;99677.19;;;16.13;59.84
31121;BME280;17770;45.966;13.632;2023-11-21T12:39:36;99677.84;;;16.17;59.64
31121;BME280;17770;45.966;13.632;2023-11-21T12:42:02;99689.94;;;16.18;60.03
31121;BME280;17770;45.966;13.632;2023-11-21T12:44:27;99674.44;;;16.16;59.80
31121;BME280;17770;45.966;13.632;2023-11-21T12:46:54;99679.44;;;16.19;59.61
31121;BME280;17770;45.966;13.632;2023-11-21T12:49:21;99670.78;;;16.19;60.08
31121;BME280;17770;45.966;13.632;2023-11-21T12:51:47;99665.69;;;16.17;59.71
31121;BME280;17770;45.966;13.632;2023-11-21T12:54:13;99664.94;;;16.15;59.76
31121;BME280;17770;45.966;13.632;2023-11-21T12:56:39;99679.53;;;16.18;59.99
31121;BME280;17770;45.966;13.632;2023-11-21T12:59:05;99683.78;;;16.19;60.31